Time;durP1;ratioP1;P1;durP2;ratioP2;P2;SDS_P1;SDS_P2;PMS_P1;PMS_P2;Temp;Humidity;BMP_temperature;BMP_pressure;BME280_temperature;BME280_humidity;BME280_pressure;Samples;Min_cycle;Max_cycle;Signal;HPM_P1;HPM_P2
2023/09/09 00:02:14;;;;;;;;;;;;;;;28.02;36.66;101071.53;5072930;28;996;-29
2023/09/09 00:04:40;;;;;;;;;;;;;;;27.96;36.38;101078.50;5077653;28;1158;-28
2023/09/09 00:07:06;;;;;;;;;;;;;;;28.01;36.44;101069.84;5077265;28;1130;-28
2023/09/09 00:09:31;;;;;;;;;;;;;;;28.14;36.19;101069.25;5071102;28;1588;-29
2023/09/09 00:11:57;;;;;;;;;;;;;;;27.96;36.15;101070.38;5065941;28;1906;-30
2023/09/09 00:14:22;;;;;;;;;;;;;;;27.86;36.51;101061.72;5067105;28;908;-28
2023/09/09 00:16:48;;;;;;;;;;;;;;;28.04;36.29;101052.44;5059608;28;1103;-30
2023/09/09 00:19:13;;;;;;;;;;;;;;;27.75;36.89;101050.28;5077225;28;1242;-31
2023/09/09 00:21:39;;;;;;;;;;;;;;;27.84;36.69;101058.34;5076901;28;1145;-31
2023/09/09 00:24:04;;;;;;;;;;;;;;;27.82;36.91;101052.25;5068095;28;1063;-28
2023/09/09 00:26:31;;;;;;;;;;;;;;;27.91;36.56;101059.28;5073018;28;1117;-30
2023/09/09 00:28:57;;;;;;;;;;;;;;;27.85;36.61;101057.31;5068052;28;1098;-32
2023/09/09 00:31:23;;;;;;;;;;;;;;;27.87;36.63;101049.84;5054010;28;1914;-30
2023/09/09 00:33:48;;;;;;;;;;;;;;;27.82;36.57;101053.13;5077194;28;1146;-29
2023/09/09 00:36:14;;;;;;;;;;;;;;;27.90;36.48;101051.34;5077052;28;1035;-28
2023/09/09 00:38:40;;;;;;;;;;;;;;;27.96;36.30;101045.25;5058724;28;1090;-32
2023/09/09 00:41:11;;;;;;;;;;;;;;;27.91;36.36;101040.34;5059054;28;1295;-31
2023/09/09 00:43:38;;;;;;;;;;;;;;;27.89;36.40;101041.56;5058028;28;1087;-28
2023/09/09 00:46:04;;;;;;;;;;;;;;;27.92;36.32;101044.75;5039805;28;1507;-29
2023/09/09 00:48:30;;;;;;;;;;;;;;;27.77;36.52;101038.44;5039152;28;1171;-32
2023/09/09 00:50:55;;;;;;;;;;;;;;;27.85;36.55;101049.19;5076039;28;1078;-28
2023/09/09 00:53:21;;;;;;;;;;;;;;;27.87;36.38;101050.72;5042005;28;1909;-30
2023/09/09 00:55:47;;;;;;;;;;;;;;;27.73;36.51;101043.34;5058042;28;1118;-29
2023/09/09 00:58:13;;;;;;;;;;;;;;;27.70;36.63;101047.28;5058703;28;1052;-28
2023/09/09 01:00:38;;;;;;;;;;;;;;;27.81;36.66;101051.41;5058353;28;1340;-31
2023/09/09 01:03:05;;;;;;;;;;;;;;;27.75;36.37;101047.59;5076387;28;999;-32
2023/09/09 01:05:30;;;;;;;;;;;;;;;27.65;37.02;101048.78;5058737;28;1050;-29
2023/09/09 01:07:56;;;;;;;;;;;;;;;27.70;36.79;101044.56;5058002;28;1066;-30
2023/09/09 01:10:23;;;;;;;;;;;;;;;27.80;36.45;101040.78;5052700;28;1173;-31
2023/09/09 01:12:49;;;;;;;;;;;;;;;27.87;36.31;101034.50;5056343;28;1915;-27
2023/09/09 01:15:15;;;;;;;;;;;;;;;27.73;36.71;101035.25;5062681;28;1119;-28
2023/09/09 01:17:41;;;;;;;;;;;;;;;27.86;36.38;101031.97;5058295;28;1269;-32
2023/09/09 01:20:14;;;;;;;;;;;;;;;27.83;36.36;101038.56;5058332;28;1142;-33
2023/09/09 01:22:48;;;;;;;;;;;;;;;27.61;36.89;101027.53;5059998;28;1380;-28
2023/09/09 01:25:14;;;;;;;;;;;;;;;27.74;36.65;101042.34;5064087;28;1106;-29
2023/09/09 01:27:40;;;;;;;;;;;;;;;27.83;36.60;101037.72;5070290;28;1276;-30
2023/09/09 01:30:06;;;;;;;;;;;;;;;27.84;36.53;101042.13;5068505;28;1094;-27
2023/09/09 01:32:32;;;;;;;;;;;;;;;27.83;36.40;101037.72;5070527;28;1986;-29
2023/09/09 01:34:57;;;;;;;;;;;;;;;27.93;36.10;101037.47;5058208;28;1158;-31
2023/09/09 01:37:23;;;;;;;;;;;;;;;27.85;36.32;101044.63;5075532;28;1027;-30
2023/09/09 01:39:48;;;;;;;;;;;;;;;27.83;36.67;101040.41;5056115;28;1135;-30
2023/09/09 01:42:17;;;;;;;;;;;;;;;27.77;36.35;101033.88;5039208;28;1143;-28
2023/09/09 01:44:44;;;;;;;;;;;;;;;27.62;36.84;101040.03;5057594;28;1095;-30
2023/09/09 01:47:10;;;;;;;;;;;;;;;27.81;36.50;101039.78;5061429;28;1552;-28
2023/09/09 01:49:36;;;;;;;;;;;;;;;27.76;36.49;101037.59;5058070;28;1276;-32
2023/09/09 01:52:02;;;;;;;;;;;;;;;27.68;36.69;101034.91;5075622;28;1905;-30
2023/09/09 01:54:28;;;;;;;;;;;;;;;27.66;36.56;101048.59;5067437;28;1148;-28
2023/09/09 01:56:54;;;;;;;;;;;;;;;27.79;36.25;101039.97;5053153;28;1243;-30
2023/09/09 01:59:19;;;;;;;;;;;;;;;27.72;36.32;101045.25;5057879;28;1206;-30
2023/09/09 02:01:45;;;;;;;;;;;;;;;27.71;36.24;101040.84;5057847;28;1380;-29
2023/09/09 02:04:10;;;;;;;;;;;;;;;27.77;36.25;101036.59;5058058;28;1166;-31
2023/09/09 02:06:36;;;;;;;;;;;;;;;27.74;36.37;101040.47;5074166;28;1109;-29
2023/09/09 02:09:03;;;;;;;;;;;;;;;27.91;35.88;101037.66;5070724;28;908;-28
2023/09/09 02:11:29;;;;;;;;;;;;;;;27.82;36.33;101042.28;5075570;28;1902;-29
2023/09/09 02:13:54;;;;;;;;;;;;;;;27.79;36.07;101036.41;5075974;28;1139;-31
2023/09/09 02:16:20;;;;;;;;;;;;;;;27.77;36.20;101031.19;5057636;28;1240;-30
2023/09/09 02:18:46;;;;;;;;;;;;;;;27.71;36.34;101040.84;5075979;28;1170;-29
2023/09/09 02:21:11;;;;;;;;;;;;;;;27.74;36.30;101035.06;5075556;28;927;-30
2023/09/09 02:23:39;;;;;;;;;;;;;;;27.76;36.07;101029.47;5067786;28;1144;-28
2023/09/09 02:26:04;;;;;;;;;;;;;;;27.69;36.27;101031.25;5070656;28;1055;-31
2023/09/09 02:28:30;;;;;;;;;;;;;;;27.73;36.20;101025.28;5057519;28;1079;-30
2023/09/09 02:30:56;;;;;;;;;;;;;;;27.75;36.33;101017.00;5062123;28;1528;-31
2023/09/09 02:33:22;;;;;;;;;;;;;;;27.61;36.44;101022.13;5057759;28;1938;-30
2023/09/09 02:35:47;;;;;;;;;;;;;;;27.64;36.40;101018.25;5061911;28;1082;-28
2023/09/09 02:38:13;;;;;;;;;;;;;;;27.64;36.59;101015.53;5075846;28;1225;-28
2023/09/09 02:40:38;;;;;;;;;;;;;;;27.72;36.31;101012.81;5064276;28;1000;-31
2023/09/09 02:43:04;;;;;;;;;;;;;;;27.98;35.99;101026.94;5079388;28;1032;-29
2023/09/09 02:45:29;;;;;;;;;;;;;;;27.97;35.79;101022.56;5060747;28;1318;-28
2023/09/09 02:47:55;;;;;;;;;;;;;;;27.67;36.12;101019.72;5070531;28;1138;-30
2023/09/09 02:50:20;;;;;;;;;;;;;;;27.57;36.43;101020.81;5054554;28;1122;-28
2023/09/09 02:52:49;;;;;;;;;;;;;;;27.73;36.14;101025.28;5047837;28;1910;-31
2023/09/09 02:55:15;;;;;;;;;;;;;;;27.69;35.90;101026.69;5060797;28;1254;-31
2023/09/09 02:57:40;;;;;;;;;;;;;;;27.71;35.81;101031.91;5060315;28;857;-29
2023/09/09 03:00:09;;;;;;;;;;;;;;;27.83;35.83;101025.03;5046681;28;1166;-29
2023/09/09 03:02:34;;;;;;;;;;;;;;;27.61;34.12;101032.13;5074121;28;1527;-31
2023/09/09 03:05:00;;;;;;;;;;;;;;;26.71;33.34;101032.38;5061056;28;1203;-32
2023/09/09 03:07:26;;;;;;;;;;;;;;;24.98;34.59;101027.47;5060440;28;1152;-29
2023/09/09 03:09:52;;;;;;;;;;;;;;;24.68;34.98;101027.78;5078287;28;877;-29
2023/09/09 03:12:20;;;;;;;;;;;;;;;24.78;34.85;101028.53;5059613;28;1910;-29
2023/09/09 03:14:49;;;;;;;;;;;;;;;24.62;34.83;101028.44;5056123;28;1351;-31
2023/09/09 03:17:15;;;;;;;;;;;;;;;24.98;34.39;101025.63;5064879;28;1050;-30
2023/09/09 03:19:41;;;;;;;;;;;;;;;24.36;34.57;101024.75;5052056;28;1269;-30
2023/09/09 03:22:06;;;;;;;;;;;;;;;24.46;33.76;101025.50;5046047;28;940;-29
2023/09/09 03:24:32;;;;;;;;;;;;;;;24.42;33.98;101024.09;5078538;28;1138;-27
2023/09/09 03:26:57;;;;;;;;;;;;;;;25.08;33.83;101020.09;5076433;28;1149;-30
2023/09/09 03:29:23;;;;;;;;;;;;;;;25.06;33.63;101022.97;5048774;28;1059;-27
2023/09/09 03:31:50;;;;;;;;;;;;;;;25.01;33.78;101019.91;5060345;28;2040;-32
2023/09/09 03:34:17;;;;;;;;;;;;;;;25.01;33.81;101021.75;5049334;28;2134;-30
2023/09/09 03:36:42;;;;;;;;;;;;;;;24.26;34.88;101030.22;5062782;28;1113;-31
2023/09/09 03:39:08;;;;;;;;;;;;;;;25.38;33.28;101030.47;5041749;28;1380;-26
2023/09/09 03:41:34;;;;;;;;;;;;;;;25.42;33.05;101035.34;5060377;28;1173;-30
2023/09/09 03:43:59;;;;;;;;;;;;;;;23.37;35.06;100947.66;5046199;28;1090;-27
2023/09/09 03:46:25;;;;;;;;;;;;;;;24.67;33.54;101036.88;5059832;28;1382;-28
2023/09/09 03:48:50;;;;;;;;;;;;;;;24.38;33.52;101033.50;5051521;28;1166;-27
2023/09/09 03:51:16;;;;;;;;;;;;;;;24.55;32.98;101042.53;5065964;28;1063;-26
2023/09/09 03:53:41;;;;;;;;;;;;;;;24.09;34.29;101042.66;5070478;28;1913;-30
2023/09/09 03:56:07;;;;;;;;;;;;;;;25.03;32.60;101047.50;5048119;28;1514;-31
2023/09/09 03:58:33;;;;;;;;;;;;;;;25.97;31.25;101039.50;5058877;28;1215;-33
2023/09/09 04:01:04;;;;;;;;;;;;;;;26.38;30.55;101049.44;5051222;28;1186;-31
2023/09/09 04:03:33;;;;;;;;;;;;;;;26.42;30.69;101056.19;5055219;28;1335;-28
2023/09/09 04:05:58;;;;;;;;;;;;;;;26.32;31.25;101050.94;5077625;28;1106;-29
2023/09/09 04:08:24;;;;;;;;;;;;;;;26.33;31.74;101052.66;5074532;28;2474;-30
2023/09/09 04:10:49;;;;;;;;;;;;;;;26.60;31.32;101058.69;5076564;28;2553;-31
2023/09/09 04:13:15;;;;;;;;;;;;;;;26.74;31.16;101051.72;5058563;28;1927;-29
2023/09/09 04:15:41;;;;;;;;;;;;;;;26.93;31.22;101052.34;5077098;28;2240;-31
2023/09/09 04:18:06;;;;;;;;;;;;;;;26.95;31.13;101047.63;5056259;28;2051;-31
2023/09/09 04:20:32;;;;;;;;;;;;;;;27.06;31.56;101051.00;5051728;28;2138;-28
2023/09/09 04:22:58;;;;;;;;;;;;;;;27.14;31.63;101050.97;5058665;28;1820;-27
2023/09/09 04:25:23;;;;;;;;;;;;;;;27.06;31.84;101054.50;5058927;28;2276;-29
2023/09/09 04:27:49;;;;;;;;;;;;;;;27.16;31.79;101051.59;5076900;28;1050;-30
2023/09/09 04:30:14;;;;;;;;;;;;;;;27.09;32.35;101051.47;5058722;28;1079;-28
2023/09/09 04:32:40;;;;;;;;;;;;;;;27.14;32.14;101045.56;5058406;28;1952;-29
2023/09/09 04:35:05;;;;;;;;;;;;;;;27.08;32.48;101054.34;5058776;28;1368;-29
2023/09/09 04:37:32;;;;;;;;;;;;;;;27.16;32.50;101048.06;5057945;28;1150;-30
2023/09/09 04:39:58;;;;;;;;;;;;;;;27.04;33.12;101042.22;5076960;28;1206;-30
2023/09/09 04:42:24;;;;;;;;;;;;;;;27.18;32.90;101041.47;5054084;28;1164;-29
2023/09/09 04:44:49;;;;;;;;;;;;;;;27.33;32.89;101044.25;5066049;28;1270;-28
2023/09/09 04:47:16;;;;;;;;;;;;;;;27.31;32.96;101040.88;5051530;28;1346;-29
2023/09/09 04:49:42;;;;;;;;;;;;;;;27.33;33.15;101038.00;5050114;28;1242;-30
2023/09/09 04:52:07;;;;;;;;;;;;;;;27.48;32.96;101048.91;5063317;28;1910;-33
2023/09/09 04:54:33;;;;;;;;;;;;;;;27.42;32.93;101041.50;5055164;28;1817;-29
2023/09/09 04:56:59;;;;;;;;;;;;;;;27.40;33.11;101039.00;5043100;28;1329;-28
2023/09/09 04:59:24;;;;;;;;;;;;;;;27.34;33.48;101037.00;5049518;28;1438;-28
2023/09/09 05:01:50;;;;;;;;;;;;;;;27.39;33.55;101045.44;5044309;28;1224;-33
2023/09/09 05:04:15;;;;;;;;;;;;;;;27.35;33.44;101044.94;5064436;28;1270;-30
2023/09/09 05:06:41;;;;;;;;;;;;;;;27.49;33.78;101045.19;5053016;28;1309;-28
2023/09/09 05:09:07;;;;;;;;;;;;;;;27.51;33.54;101051.25;5058549;28;1143;-29
2023/09/09 05:11:33;;;;;;;;;;;;;;;27.56;33.38;101046.16;5051083;28;1913;-30
2023/09/09 05:13:58;;;;;;;;;;;;;;;27.43;33.72;101046.75;5049015;28;1289;-30
2023/09/09 05:16:24;;;;;;;;;;;;;;;27.65;33.49;101046.09;5044933;28;2168;-31
2023/09/09 05:18:49;;;;;;;;;;;;;;;27.56;34.01;101039.91;5047764;28;1499;-29
2023/09/09 05:21:15;;;;;;;;;;;;;;;27.58;33.78;101049.50;5055097;28;1306;-34
2023/09/09 05:23:41;;;;;;;;;;;;;;;27.63;33.69;101048.97;5049168;28;1797;-29
2023/09/09 05:26:06;;;;;;;;;;;;;;;27.69;33.91;101050.16;5044112;28;1183;-34
2023/09/09 05:28:32;;;;;;;;;;;;;;;27.60;33.83;101049.34;5058164;28;1296;-30
2023/09/09 05:30:57;;;;;;;;;;;;;;;27.63;33.83;101052.53;5044322;28;1275;-30
2023/09/09 05:33:23;;;;;;;;;;;;;;;27.49;33.91;101056.81;5067442;28;1906;-35
2023/09/09 05:35:49;;;;;;;;;;;;;;;27.72;33.54;101050.66;5075690;28;1042;-31
2023/09/09 05:38:15;;;;;;;;;;;;;;;27.69;33.90;101059.13;5075930;28;1014;-32
2023/09/09 05:40:40;;;;;;;;;;;;;;;27.92;33.77;101058.28;5057829;28;1171;-30
2023/09/09 05:43:06;;;;;;;;;;;;;;;28.06;33.46;101056.63;5057673;28;1163;-30
2023/09/09 05:45:32;;;;;;;;;;;;;;;27.98;33.62;101062.09;5075506;28;1027;-33
2023/09/09 05:47:58;;;;;;;;;;;;;;;28.13;33.63;101061.31;5049683;28;1174;-33
2023/09/09 05:50:23;;;;;;;;;;;;;;;28.14;33.58;101065.69;5069200;28;1023;-32
2023/09/09 05:52:49;;;;;;;;;;;;;;;28.13;33.52;101064.03;5063247;28;1977;-31
2023/09/09 05:55:14;;;;;;;;;;;;;;;28.06;33.54;101059.31;5075584;28;2589;-28
2023/09/09 05:57:40;;;;;;;;;;;;;;;28.08;33.88;101062.69;5057275;28;1070;-29
2023/09/09 06:00:06;;;;;;;;;;;;;;;28.02;33.78;101058.03;5057497;28;1359;-30
2023/09/09 06:02:44;;;;;;;;;;;;;;;28.10;33.63;101073.34;5043152;28;1311;-31
2023/09/09 06:05:10;;;;;;;;;;;;;;;28.10;34.16;101065.22;5054103;28;1100;-33
2023/09/09 06:07:36;;;;;;;;;;;;;;;28.18;34.18;101075.13;5065722;28;1079;-31
2023/09/09 06:10:01;;;;;;;;;;;;;;;28.23;34.12;101072.72;5075253;28;1238;-34
2023/09/09 06:12:27;;;;;;;;;;;;;;;28.23;34.29;101076.25;5057849;28;1906;-28
2023/09/09 06:14:53;;;;;;;;;;;;;;;28.25;34.07;101078.78;5059577;28;1205;-32
2023/09/09 06:17:18;;;;;;;;;;;;;;;28.20;34.53;101078.47;5079380;28;1151;-29
2023/09/09 06:19:44;;;;;;;;;;;;;;;28.22;34.67;101073.75;5079231;28;1047;-29
2023/09/09 06:22:10;;;;;;;;;;;;;;;28.12;34.94;101076.69;5060997;28;1286;-33
2023/09/09 06:24:35;;;;;;;;;;;;;;;28.23;34.88;101078.97;5054601;28;2418;-28
2023/09/09 06:27:01;;;;;;;;;;;;;;;28.01;35.12;101077.97;5061058;28;1251;-29
2023/09/09 06:29:29;;;;;;;;;;;;;;;28.23;35.16;101080.81;5057596;28;1352;-30
2023/09/09 06:31:54;;;;;;;;;;;;;;;28.25;35.36;101081.50;5051453;28;1962;-29
2023/09/09 06:34:20;;;;;;;;;;;;;;;28.19;35.17;101085.78;5078857;28;1182;-32
2023/09/09 06:36:46;;;;;;;;;;;;;;;28.19;35.47;101085.78;5078812;28;991;-30
2023/09/09 06:39:11;;;;;;;;;;;;;;;28.07;35.87;101090.78;5063602;28;1074;-31
2023/09/09 06:41:37;;;;;;;;;;;;;;;28.10;35.76;101086.84;5067476;28;992;-32
2023/09/09 06:44:03;;;;;;;;;;;;;;;28.11;35.91;101086.66;5078462;28;1209;-28
2023/09/09 06:46:28;;;;;;;;;;;;;;;28.07;36.06;101096.19;5078210;28;879;-29
2023/09/09 06:48:54;;;;;;;;;;;;;;;28.07;35.82;101100.75;5079827;28;1264;-32
2023/09/09 06:51:19;;;;;;;;;;;;;;;28.16;35.85;101096.94;5078456;28;1003;-32
2023/09/09 06:53:45;;;;;;;;;;;;;;;28.07;35.87;101096.19;5065619;28;2383;-30
2023/09/09 06:56:10;;;;;;;;;;;;;;;28.15;35.85;101099.81;5078755;28;1101;-31
2023/09/09 06:58:36;;;;;;;;;;;;;;;28.09;35.87;101093.28;5077895;28;1130;-31
2023/09/09 07:01:02;;;;;;;;;;;;;;;28.08;35.72;101094.31;5078510;28;1033;-30
2023/09/09 07:03:28;;;;;;;;;;;;;;;28.09;35.98;101091.41;5078468;28;1150;-32
2023/09/09 07:05:53;;;;;;;;;;;;;;;28.08;36.13;101089.75;5077985;28;1239;-28
2023/09/09 07:08:19;;;;;;;;;;;;;;;28.06;36.30;101085.53;5078246;28;1130;-31
2023/09/09 07:10:48;;;;;;;;;;;;;;;28.18;36.04;101096.75;5077697;28;899;-32
2023/09/09 07:13:13;;;;;;;;;;;;;;;28.12;36.25;101095.63;5077775;28;1977;-32
2023/09/09 07:15:39;;;;;;;;;;;;;;;28.09;36.27;101079.78;5078027;28;995;-29
2023/09/09 07:18:04;;;;;;;;;;;;;;;28.10;36.16;101092.25;5077962;28;1094;-32
2023/09/09 07:20:30;;;;;;;;;;;;;;;28.13;36.32;101075.66;5078135;28;1043;-29
2023/09/09 07:22:55;;;;;;;;;;;;;;;28.10;36.46;101087.69;5072102;28;983;-28
2023/09/09 07:25:21;;;;;;;;;;;;;;;28.34;35.79;101082.28;5067662;28;2553;-29
2023/09/09 07:27:46;;;;;;;;;;;;;;;28.21;35.64;101081.00;5073925;28;1167;-31
2023/09/09 07:30:12;;;;;;;;;;;;;;;28.23;35.75;101081.66;5077823;28;988;-28
2023/09/09 07:32:37;;;;;;;;;;;;;;;28.21;35.87;101078.31;5077705;28;1979;-30
2023/09/09 07:35:03;;;;;;;;;;;;;;;28.18;36.07;101072.41;5077425;28;838;-28
2023/09/09 07:37:29;;;;;;;;;;;;;;;28.16;36.14;101072.59;5077571;28;1142;-33
2023/09/09 07:39:56;;;;;;;;;;;;;;;28.23;36.17;101080.81;5077382;28;1003;-30
2023/09/09 07:42:21;;;;;;;;;;;;;;;28.15;35.87;101078.19;5077586;28;1054;-31
2023/09/09 07:44:47;;;;;;;;;;;;;;;28.15;36.10;101076.34;5077663;28;1170;-32
2023/09/09 07:47:12;;;;;;;;;;;;;;;28.13;36.30;101075.66;5073481;28;1047;-32
2023/09/09 07:49:37;;;;;;;;;;;;;;;28.06;36.41;101074.72;5069113;28;1050;-32
2023/09/09 07:52:03;;;;;;;;;;;;;;;28.18;36.16;101075.13;5072536;28;1981;-28
2023/09/09 07:54:29;;;;;;;;;;;;;;;28.14;35.88;101074.66;5076332;28;2683;-33
2023/09/09 07:56:55;;;;;;;;;;;;;;;28.11;36.03;101072.31;5077412;28;1102;-28
2023/09/09 07:59:20;;;;;;;;;;;;;;;28.20;36.03;101078.47;5077025;28;895;-34
2023/09/09 08:01:47;;;;;;;;;;;;;;;28.13;36.15;101069.44;5076808;28;1099;-27
2023/09/09 08:04:12;;;;;;;;;;;;;;;28.14;36.05;101061.13;5077159;28;1015;-29
2023/09/09 08:06:37;;;;;;;;;;;;;;;28.08;36.07;101064.56;5077359;28;1187;-29
2023/09/09 08:09:03;;;;;;;;;;;;;;;28.19;36.03;101066.84;5069109;28;1098;-30
2023/09/09 08:11:28;;;;;;;;;;;;;;;28.09;36.08;101064.38;5071666;28;1047;-28
2023/09/09 08:13:54;;;;;;;;;;;;;;;28.14;35.70;101069.25;5076942;28;1909;-28
2023/09/09 08:16:19;;;;;;;;;;;;;;;28.23;35.88;101073.56;5076610;28;1074;-29
2023/09/09 08:18:45;;;;;;;;;;;;;;;28.32;35.67;101070.78;5076681;28;1129;-27
2023/09/09 08:21:12;;;;;;;;;;;;;;;28.27;35.64;101070.47;5064113;28;1043;-29
2023/09/09 08:23:38;;;;;;;;;;;;;;;28.44;34.88;101073.91;5076548;28;2267;-30
2023/09/09 08:26:03;;;;;;;;;;;;;;;28.46;35.33;101071.88;5076631;28;1067;-30
2023/09/09 08:28:29;;;;;;;;;;;;;;;28.39;35.33;101065.50;5075769;28;1021;-30
2023/09/09 08:30:58;;;;;;;;;;;;;;;28.34;35.55;101063.34;5063325;28;1278;-32
2023/09/09 08:33:23;;;;;;;;;;;;;;;28.40;35.64;101064.47;5069595;28;1906;-29
2023/09/09 08:35:49;;;;;;;;;;;;;;;28.32;35.33;101054.53;5059667;28;1309;-28
2023/09/09 08:38:14;;;;;;;;;;;;;;;28.22;35.52;101061.06;5064349;28;1226;-31
2023/09/09 08:41:00;;;;;;;;;;;;;;;28.32;35.48;101059.94;5065795;28;1202;-30
2023/09/09 08:43:44;;;;;;;;;;;;;;;28.27;35.24;101062.38;5068085;28;1290;-31
2023/09/09 08:46:11;;;;;;;;;;;;;;;28.32;35.22;101054.53;5056021;28;1083;-29
2023/09/09 08:48:37;;;;;;;;;;;;;;;28.27;35.32;101049.69;5070502;28;1063;-33
2023/09/09 08:51:03;;;;;;;;;;;;;;;28.35;35.38;101046.09;5064363;28;1022;-30
2023/09/09 08:53:29;;;;;;;;;;;;;;;28.32;35.11;101038.31;5065782;28;2213;-31
2023/09/09 08:55:55;;;;;;;;;;;;;;;28.34;35.59;101037.13;5044724;28;1440;-31
2023/09/09 08:58:21;;;;;;;;;;;;;;;28.52;35.02;101037.81;5063761;28;1222;-32
2023/09/09 09:00:47;;;;;;;;;;;;;;;28.42;35.12;101036.22;5070747;28;1066;-29
2023/09/09 09:03:12;;;;;;;;;;;;;;;28.43;35.47;101040.59;5069025;28;1318;-31
2023/09/09 09:05:38;;;;;;;;;;;;;;;28.50;34.95;101040.69;5064760;28;1166;-31
2023/09/09 09:08:04;;;;;;;;;;;;;;;28.46;35.32;101034.81;5064073;28;1203;-29
2023/09/09 09:10:30;;;;;;;;;;;;;;;28.45;35.00;101040.41;5066550;28;1123;-33
2023/09/09 09:12:55;;;;;;;;;;;;;;;28.58;34.60;101031.63;5068858;28;1969;-28
2023/09/09 09:15:21;;;;;;;;;;;;;;;28.51;35.11;101030.72;5063882;28;1153;-30
2023/09/09 09:17:47;;;;;;;;;;;;;;;28.34;35.49;101031.72;5064962;28;1234;-31
2023/09/09 09:20:25;;;;;;;;;;;;;;;28.61;35.14;101028.59;5069557;28;1187;-28
2023/09/09 09:22:50;;;;;;;;;;;;;;;28.69;34.71;101023.06;5070445;28;1318;-28
2023/09/09 09:25:22;;;;;;;;;;;;;;;28.71;34.43;101023.72;5068876;28;2380;-27
2023/09/09 09:27:47;;;;;;;;;;;;;;;28.79;34.39;101014.66;5064543;28;1366;-28
2023/09/09 09:30:13;;;;;;;;;;;;;;;28.63;34.45;101012.97;5066125;28;1190;-29
2023/09/09 09:32:40;;;;;;;;;;;;;;;28.66;34.67;101026.13;5070089;28;1973;-30
2023/09/09 09:35:06;;;;;;;;;;;;;;;28.74;34.36;101017.09;5062505;28;1230;-29
2023/09/09 09:37:31;;;;;;;;;;;;;;;28.73;34.04;101015.41;5059583;28;1155;-27
2023/09/09 09:39:57;;;;;;;;;;;;;;;28.67;34.87;101017.00;5050351;28;1222;-32
2023/09/09 09:42:22;;;;;;;;;;;;;;;28.80;34.50;101010.06;5069150;28;1230;-32
2023/09/09 09:44:48;;;;;;;;;;;;;;;28.68;34.37;101015.13;5064130;28;1246;-30
2023/09/09 09:47:14;;;;;;;;;;;;;;;28.70;34.51;101007.66;5062689;28;1472;-33
2023/09/09 09:49:40;;;;;;;;;;;;;;;28.95;33.73;101002.78;5069871;28;1163;-29
2023/09/09 09:52:06;;;;;;;;;;;;;;;28.88;34.04;101003.72;5074630;28;1977;-28
2023/09/09 09:54:32;;;;;;;;;;;;;;;28.92;33.77;101007.72;5068503;28;2387;-29
2023/09/09 09:56:59;;;;;;;;;;;;;;;29.09;33.64;101002.97;5066320;28;1270;-28
2023/09/09 09:59:24;;;;;;;;;;;;;;;29.10;33.43;100991.09;5074088;28;1230;-27
2023/09/09 10:01:50;;;;;;;;;;;;;;;28.92;33.74;100995.03;5074275;28;1167;-33
2023/09/09 10:04:16;;;;;;;;;;;;;;;28.74;34.09;100984.59;5079414;28;1206;-31
2023/09/09 10:06:42;;;;;;;;;;;;;;;28.82;33.66;100991.78;5079493;28;1003;-30
2023/09/09 10:09:08;;;;;;;;;;;;;;;28.77;33.99;100983.38;5061359;28;1059;-29
2023/09/09 10:11:35;;;;;;;;;;;;;;;28.77;34.06;100988.78;5079411;28;1132;-30
2023/09/09 10:14:04;;;;;;;;;;;;;;;28.82;33.82;100984.50;5065852;28;1910;-29
2023/09/09 10:16:29;;;;;;;;;;;;;;;28.96;33.23;100977.38;5061037;28;1178;-32
2023/09/09 10:18:55;;;;;;;;;;;;;;;28.90;33.35;100980.84;5076563;28;1138;-30
2023/09/09 10:21:20;;;;;;;;;;;;;;;28.85;33.97;100986.84;5059600;28;1071;-27
2023/09/09 10:23:47;;;;;;;;;;;;;;;29.03;33.54;100971.25;5055814;28;1856;-31
2023/09/09 10:26:13;;;;;;;;;;;;;;;28.96;33.27;100977.38;5061394;28;1023;-31
2023/09/09 10:28:38;;;;;;;;;;;;;;;29.15;32.95;100979.69;5058987;28;1086;-28
2023/09/09 10:31:04;;;;;;;;;;;;;;;29.15;32.76;100972.41;5068102;28;1099;-31
2023/09/09 10:33:29;;;;;;;;;;;;;;;28.95;33.27;100982.97;5060812;28;1973;-27
2023/09/09 10:35:55;;;;;;;;;;;;;;;29.05;33.34;100986.25;5060521;28;1040;-30
2023/09/09 10:38:20;;;;;;;;;;;;;;;29.17;33.02;100980.34;5061120;28;1125;-29
2023/09/09 10:40:48;;;;;;;;;;;;;;;29.11;33.30;100978.41;5076671;28;1042;-29
2023/09/09 10:43:13;;;;;;;;;;;;;;;29.29;32.79;100975.25;5067753;28;1020;-32
2023/09/09 10:45:43;;;;;;;;;;;;;;;29.11;32.97;100968.41;5060864;28;1023;-30
2023/09/09 10:48:10;;;;;;;;;;;;;;;29.06;33.34;100962.72;5078189;28;1093;-28
2023/09/09 10:50:51;;;;;;;;;;;;;;;28.98;33.01;100960.97;5076246;28;1123;-27
2023/09/09 10:53:21;;;;;;;;;;;;;;;28.91;33.65;100965.44;5070432;28;1976;-33
2023/09/09 10:55:47;;;;;;;;;;;;;;;28.99;33.18;100953.69;5078462;28;2749;-28
2023/09/09 10:58:16;;;;;;;;;;;;;;;28.99;33.34;100959.09;5078153;28;1034;-31
2023/09/09 11:00:44;;;;;;;;;;;;;;;28.93;33.68;100955.22;5066981;28;1206;-27
2023/09/09 11:03:30;;;;;;;;;;;;;;;28.93;33.42;100956.09;5078373;28;1056;-31
2023/09/09 11:05:55;;;;;;;;;;;;;;;28.93;33.98;100947.97;5078039;28;1639;-31
2023/09/09 11:08:32;;;;;;;;;;;;;;;28.90;33.88;100947.50;5078368;28;1514;-33
2023/09/09 11:11:11;;;;;;;;;;;;;;;28.96;33.79;100942.16;5078125;28;1099;-27
2023/09/09 11:13:39;;;;;;;;;;;;;;;28.97;33.72;100948.47;5077759;28;1909;-28
2023/09/09 11:16:07;;;;;;;;;;;;;;;28.92;34.08;100945.44;5078469;28;1130;-29
2023/09/09 11:18:36;;;;;;;;;;;;;;;28.85;34.08;100946.22;5078225;28;1508;-28
2023/09/09 11:21:02;;;;;;;;;;;;;;;29.05;33.77;100944.78;5078066;28;1066;-29
2023/09/09 11:23:28;;;;;;;;;;;;;;;28.95;34.07;100945.06;5064197;28;1837;-28
2023/09/09 11:25:53;;;;;;;;;;;;;;;28.89;34.19;100937.72;5060121;28;1062;-31
2023/09/09 11:28:19;;;;;;;;;;;;;;;28.91;33.86;100936.47;5077921;28;1174;-29
2023/09/09 11:30:44;;;;;;;;;;;;;;;29.00;33.88;100930.97;5060078;28;1088;-29
2023/09/09 11:33:10;;;;;;;;;;;;;;;28.97;33.78;100926.78;5064247;28;1966;-30
2023/09/09 11:35:35;;;;;;;;;;;;;;;28.91;33.76;100927.53;5058831;28;1206;-27
2023/09/09 11:38:03;;;;;;;;;;;;;;;29.02;33.73;100918.09;5072589;28;1174;-28
2023/09/09 11:40:29;;;;;;;;;;;;;;;29.15;33.48;100923.66;5070597;28;1250;-31
2023/09/09 11:42:54;;;;;;;;;;;;;;;29.08;33.52;100918.16;5066419;28;1265;-33
2023/09/09 11:45:20;;;;;;;;;;;;;;;29.03;33.93;100917.06;5064182;28;1313;-29
2023/09/09 11:47:45;;;;;;;;;;;;;;;29.02;33.79;100913.53;5077130;28;970;-30
2023/09/09 11:50:11;;;;;;;;;;;;;;;28.94;33.80;100914.47;5059560;28;1043;-32
2023/09/09 11:52:36;;;;;;;;;;;;;;;29.00;33.97;100914.72;5077793;28;1971;-29
2023/09/09 11:55:02;;;;;;;;;;;;;;;29.11;34.03;100911.53;5073657;28;2637;-30
2023/09/09 11:57:28;;;;;;;;;;;;;;;29.07;33.76;100910.22;5059230;28;1153;-31
2023/09/09 11:59:54;;;;;;;;;;;;;;;29.15;33.89;100909.25;5076906;28;1007;-30
2023/09/09 12:02:20;;;;;;;;;;;;;;;29.13;33.44;100908.63;5076698;28;1178;-32
2023/09/09 12:04:55;;;;;;;;;;;;;;;29.06;34.28;100905.84;5059621;28;1253;-30
2023/09/09 12:07:21;;;;;;;;;;;;;;;29.02;34.42;100908.09;5075055;28;1203;-30
2023/09/09 12:09:47;;;;;;;;;;;;;;;29.11;34.13;100905.28;5058267;28;1147;-33
2023/09/09 12:12:12;;;;;;;;;;;;;;;29.16;34.03;100916.38;5057762;28;1978;-31
2023/09/09 12:14:38;;;;;;;;;;;;;;;29.16;34.01;100910.94;5057723;28;1312;-29
2023/09/09 12:17:03;;;;;;;;;;;;;;;29.23;33.92;100916.44;5071084;28;1259;-29
2023/09/09 12:19:29;;;;;;;;;;;;;;;29.14;33.98;100913.00;5058253;28;1210;-32
2023/09/09 12:21:55;;;;;;;;;;;;;;;29.19;34.14;100919.53;5069177;28;1234;-29
2023/09/09 12:24:21;;;;;;;;;;;;;;;29.20;33.81;100914.94;5066248;28;1927;-31
2023/09/09 12:26:51;;;;;;;;;;;;;;;29.18;33.94;100917.00;5057630;28;991;-31
2023/09/09 12:29:16;;;;;;;;;;;;;;;29.21;34.01;100919.34;5064714;28;1261;-31
2023/09/09 12:31:58;;;;;;;;;;;;;;;29.25;34.02;100907.06;5064090;28;1211;-31
2023/09/09 12:34:24;;;;;;;;;;;;;;;29.24;34.12;100920.81;5067406;28;1249;-30
2023/09/09 12:36:49;;;;;;;;;;;;;;;29.23;34.27;100916.44;5069534;28;1199;-33
2023/09/09 12:39:19;;;;;;;;;;;;;;;29.29;34.06;100913.78;5070328;28;1241;-28
2023/09/09 12:41:55;;;;;;;;;;;;;;;29.15;34.42;100917.38;5065911;28;1270;-30
2023/09/09 12:44:20;;;;;;;;;;;;;;;29.15;34.26;100920.09;5052730;28;1308;-29